createdAt,value
2018-03-19T00:02:18.093Z,101230.06
2018-03-19T00:04:45.632Z,101228.36
2018-03-19T00:07:13.200Z,101224.08
2018-03-19T00:09:40.828Z,101224.50
2018-03-19T00:12:11.016Z,101225.36
2018-03-19T00:14:39.381Z,101226.22
2018-03-19T00:17:06.940Z,101234.77
2018-03-19T00:19:34.481Z,101235.19
2018-03-19T00:22:02.046Z,101232.19
2018-03-19T00:24:29.597Z,101230.48
2018-03-19T00:26:58.942Z,101218.95
2018-03-19T00:29:27.889Z,101224.08
2018-03-19T00:31:55.773Z,101228.77
2018-03-19T00:34:24.293Z,101227.48
2018-03-19T00:36:51.845Z,101226.20
2018-03-19T00:39:19.354Z,101221.93
2018-03-19T00:41:46.965Z,101232.63
2018-03-19T00:44:19.785Z,101225.78
2018-03-19T00:46:50.630Z,101225.36
2018-03-19T00:49:19.653Z,101227.50
2018-03-19T00:51:47.189Z,101224.51
2018-03-19T00:54:14.740Z,101228.34
2018-03-19T00:56:42.292Z,101233.89
2018-03-19T00:59:09.908Z,101232.20
2018-03-19T01:01:38.304Z,101228.34
2018-03-19T01:04:07.325Z,101239.48
2018-03-19T01:06:35.560Z,101233.48
2018-03-19T01:09:03.107Z,101238.19
2018-03-19T01:11:30.634Z,101230.92
2018-03-19T01:13:58.202Z,101245.45
2018-03-19T01:16:25.753Z,101243.31
2018-03-19T01:18:54.585Z,101241.17
2018-03-19T01:21:26.210Z,101236.91
2018-03-19T01:23:54.133Z,101241.59
2018-03-19T01:26:24.129Z,101238.18
2018-03-19T01:28:51.645Z,101234.75
2018-03-19T01:31:19.217Z,101237.75
2018-03-19T01:33:46.750Z,101239.02
2018-03-19T01:36:15.894Z,101237.31
2018-03-19T01:38:46.238Z,101249.70
2018-03-19T01:41:14.293Z,101237.75
2018-03-19T01:43:41.816Z,101244.59
2018-03-19T01:46:09.335Z,101242.45
2018-03-19T01:48:36.910Z,101236.47
2018-03-19T01:51:04.445Z,101239.03
2018-03-19T01:53:32.022Z,101238.61
2018-03-19T01:55:59.646Z,101236.89
2018-03-19T01:58:27.585Z,101242.46
2018-03-19T02:00:55.129Z,101244.14
2018-03-19T02:03:22.680Z,101245.43
2018-03-19T02:05:50.240Z,101247.56
2018-03-19T02:08:17.782Z,101245.86
2018-03-19T02:10:46.452Z,101240.73
2018-03-19T02:13:16.637Z,101243.30
2018-03-19T02:15:47.906Z,101244.16
2018-03-19T02:18:16.597Z,101238.61
2018-03-19T02:20:44.804Z,101238.16
2018-03-19T02:23:12.358Z,101236.02
2018-03-19T02:25:39.904Z,101236.87
2018-03-19T02:28:07.561Z,101249.27
2018-03-19T02:30:36.028Z,101244.14
2018-03-19T02:33:03.573Z,101245.42
2018-03-19T02:35:31.968Z,101242.88
2018-03-19T02:37:59.552Z,101254.42
2018-03-19T02:40:27.070Z,101252.70
2018-03-19T02:42:54.645Z,101254.83
2018-03-19T02:45:26.099Z,101260.82
2018-03-19T02:47:56.073Z,101261.25
2018-03-19T02:50:23.648Z,101265.52
2018-03-19T02:52:52.282Z,101261.66
2018-03-19T02:55:20.801Z,101275.33
2018-03-19T02:57:48.329Z,101266.36
2018-03-19T03:00:15.875Z,101268.92
2018-03-19T03:02:43.862Z,101270.21
2018-03-19T03:05:11.529Z,101277.47
2018-03-19T03:07:40.221Z,101269.35
2018-03-19T03:10:07.800Z,101275.33
2018-03-19T03:12:35.340Z,101267.22
2018-03-19T03:15:02.867Z,101270.21
2018-03-19T03:17:30.431Z,101265.09
2018-03-19T03:19:59.088Z,101266.38
2018-03-19T03:22:27.636Z,101261.26
2018-03-19T03:24:58.844Z,101254.42
2018-03-19T03:27:26.368Z,101255.70
2018-03-19T03:29:53.876Z,101258.70
2018-03-19T03:32:21.427Z,101257.81
2018-03-19T03:34:50.094Z,101254.83
2018-03-19T03:37:18.789Z,101247.56
2018-03-19T03:39:47.284Z,101248.41
2018-03-19T03:42:16.301Z,101250.56
2018-03-19T03:44:44.962Z,101254.41
2018-03-19T03:47:12.497Z,101256.55
2018-03-19T03:49:40.001Z,101257.39
2018-03-19T03:52:07.571Z,101258.27
2018-03-19T03:54:38.101Z,101263.79
2018-03-19T03:57:10.225Z,101262.09
2018-03-19T03:59:39.051Z,101271.48
2018-03-19T04:02:06.607Z,101271.93
2018-03-19T04:04:34.130Z,101275.34
2018-03-19T04:07:01.660Z,101277.91
2018-03-19T04:09:29.214Z,101282.59
2018-03-19T04:11:57.591Z,101272.33
2018-03-19T04:14:30.427Z,101264.22
2018-03-19T04:16:58.919Z,101267.63
2018-03-19T04:19:26.469Z,101267.23
2018-03-19T04:21:53.987Z,101273.63
2018-03-19T04:24:21.581Z,101280.91
2018-03-19T04:26:49.737Z,101284.73
2018-03-19T04:29:19.058Z,101280.48
2018-03-19T04:31:47.678Z,101283.88
2018-03-19T04:34:18.268Z,101296.28
2018-03-19T04:36:45.772Z,101293.70
2018-03-19T04:39:13.301Z,101299.27
2018-03-19T04:41:40.814Z,101302.70
2018-03-19T04:44:08.352Z,101304.38
2018-03-19T04:46:35.905Z,101302.69
2018-03-19T04:49:04.007Z,101308.22
2018-03-19T04:51:35.114Z,101315.50
2018-03-19T04:54:02.666Z,101321.91
2018-03-19T04:56:30.170Z,101317.20
2018-03-19T04:58:57.703Z,101315.52
2018-03-19T05:01:25.241Z,101317.20
2018-03-19T05:03:52.783Z,101324.47
2018-03-19T05:06:23.171Z,101321.06
2018-03-19T05:08:51.735Z,101322.75
2018-03-19T05:11:19.253Z,101319.77
2018-03-19T05:13:46.776Z,101322.77
2018-03-19T05:16:14.327Z,101320.20
2018-03-19T05:18:41.908Z,101325.77
2018-03-19T05:21:10.562Z,101330.90
2018-03-19T05:23:40.181Z,101332.16
2018-03-19T05:26:07.778Z,101329.59
2018-03-19T05:28:35.320Z,101336.88
2018-03-19T05:31:02.877Z,101337.30
2018-03-19T05:33:30.400Z,101345.41
2018-03-19T05:35:57.944Z,101347.14
2018-03-19T05:38:27.981Z,101343.27
2018-03-19T05:40:58.097Z,101336.42
2018-03-19T05:43:26.800Z,101343.69
2018-03-19T05:45:54.340Z,101345.83
2018-03-19T05:48:22.017Z,101347.53
2018-03-19T05:50:49.554Z,101351.81
2018-03-19T05:53:17.108Z,101349.25
2018-03-19T05:55:47.274Z,101341.56
2018-03-19T05:58:19.218Z,101360.38
2018-03-19T06:00:48.126Z,101350.11
2018-03-19T06:03:15.708Z,101365.93
2018-03-19T06:05:43.227Z,101370.20
2018-03-19T06:08:10.773Z,101378.34
2018-03-19T06:10:38.302Z,101380.47
2018-03-19T06:13:07.025Z,101389.45
2018-03-19T06:15:38.325Z,101397.58
2018-03-19T06:18:06.365Z,101410.84
2018-03-19T06:20:33.876Z,101412.97
2018-03-19T06:23:01.420Z,101416.36
2018-03-19T06:25:28.972Z,101419.38
2018-03-19T06:27:56.593Z,101412.52
2018-03-19T06:30:24.157Z,101418.92
2018-03-19T06:32:51.713Z,101427.06
2018-03-19T06:35:20.041Z,101431.34
2018-03-19T06:37:47.552Z,101430.48
2018-03-19T06:40:15.074Z,101440.75
2018-03-19T06:42:42.638Z,101444.61
2018-03-19T06:45:10.196Z,101437.75
2018-03-19T06:47:40.385Z,101441.17
2018-03-19T06:50:11.298Z,101446.73
2018-03-19T06:52:39.883Z,101450.59
2018-03-19T06:55:07.430Z,101454.00
2018-03-19T06:57:34.934Z,101453.16
2018-03-19T07:00:02.464Z,101460.00
2018-03-19T07:02:30.021Z,101451.86
2018-03-19T07:11:09.521Z,101473.25
2018-03-19T07:13:37.032Z,101486.92
2018-03-19T07:16:04.548Z,101492.06
2018-03-19T07:18:32.108Z,101498.06
2018-03-19T07:21:17.705Z,101492.92
2018-03-19T07:23:58.359Z,101492.50
2018-03-19T07:26:27.639Z,101505.34
2018-03-19T07:28:55.156Z,101494.22
2018-03-19T07:31:22.677Z,101498.91
2018-03-19T07:33:50.226Z,101494.22
2018-03-19T07:36:17.796Z,101492.09
2018-03-19T07:38:45.937Z,101498.08
2018-03-19T07:41:13.598Z,101495.09
2018-03-19T07:43:41.221Z,101501.48
2018-03-19T07:46:08.812Z,101499.35
2018-03-19T07:48:36.395Z,101507.05
2018-03-19T07:51:03.901Z,101503.22
2018-03-19T07:53:31.509Z,101511.31
2018-03-19T07:55:59.965Z,101507.91
2018-03-19T07:58:27.564Z,101515.19
2018-03-19T08:00:55.183Z,101507.91
2018-03-19T08:03:23.386Z,101511.78
2018-03-19T08:05:50.976Z,101523.31
2018-03-19T08:08:18.699Z,101525.02
2018-03-19T08:10:46.248Z,101528.87
2018-03-19T08:13:14.288Z,101530.59
2018-03-19T08:15:42.982Z,101535.73
2018-03-19T08:18:11.368Z,101539.16
2018-03-19T08:20:39.920Z,101552.86
2018-03-19T08:23:07.446Z,101561.84
2018-03-19T08:25:34.972Z,101574.69
2018-03-19T08:28:02.531Z,101566.98
2018-03-19T08:30:30.810Z,101575.11
2018-03-19T08:33:06.920Z,101587.52
2018-03-19T08:35:35.968Z,101584.09
2018-03-19T08:38:04.377Z,101583.68
2018-03-19T08:40:31.909Z,101584.09
2018-03-19T08:42:59.464Z,101584.53
2018-03-19T08:45:27.020Z,101593.95
2018-03-19T08:48:00.249Z,101593.11
2018-03-19T08:56:06.022Z,101612.80
2018-03-19T08:58:33.662Z,101604.21
2018-03-19T09:01:01.234Z,101617.05
2018-03-19T09:03:29.649Z,101622.64
2018-03-19T09:08:31.183Z,101615.36
2018-03-19T09:11:04.042Z,101615.77
2018-03-19T09:13:31.613Z,101630.77
2018-03-19T09:15:59.168Z,101631.20
2018-03-19T09:18:26.686Z,101640.63
2018-03-19T09:20:54.285Z,101650.05
2018-03-19T09:23:30.026Z,101646.62
2018-03-19T09:26:09.126Z,101647.91
2018-03-19T09:31:55.431Z,101657.34
2018-03-19T09:34:41.972Z,101649.63
2018-03-19T09:49:31.978Z,101656.89
2018-03-19T09:52:05.171Z,101643.19
2018-03-19T10:06:45.945Z,101672.75
2018-03-19T10:09:13.994Z,101676.17
2018-03-19T10:23:23.148Z,101697.14
2018-03-19T10:25:54.281Z,101695.42
2018-03-19T10:28:22.887Z,101705.70
2018-03-19T10:40:00.853Z,101702.66
2018-03-19T10:42:28.541Z,101698.80
2018-03-19T10:44:56.156Z,101721.12
2018-03-19T10:56:32.169Z,101721.02
2018-03-19T10:58:59.839Z,101727.42
2018-03-19T11:01:32.992Z,101730.41
2018-03-19T11:13:09.781Z,101732.46
2018-03-19T11:15:37.337Z,101730.31
2018-03-19T11:18:05.864Z,101717.83
2018-03-19T11:29:41.920Z,101710.86
2018-03-19T11:32:09.507Z,101715.59
2018-03-19T11:34:37.129Z,101715.13
2018-03-19T11:37:12.069Z,101726.28
2018-03-19T11:48:47.929Z,101737.71
2018-03-19T11:51:15.564Z,101731.20
2018-03-19T11:53:44.423Z,101726.84
2018-03-19T12:05:20.415Z,101734.05
2018-03-19T12:07:48.081Z,101732.33
2018-03-19T12:10:15.694Z,101741.30
2018-03-19T12:21:53.021Z,101779.81
2018-03-19T12:24:24.481Z,101785.80
2018-03-19T12:26:52.930Z,101798.20
2018-03-19T12:38:36.154Z,101800.03
2018-03-19T12:41:08.786Z,101795.95
2018-03-19T12:43:40.396Z,101792.47
2018-03-19T12:55:17.404Z,101792.31
2018-03-19T12:57:44.946Z,101805.08
2018-03-19T13:00:12.589Z,101798.11
2018-03-19T13:11:55.122Z,101824.02
2018-03-19T13:14:22.687Z,101823.26
2018-03-19T13:16:51.113Z,101819.42
2018-03-19T13:19:18.649Z,101818.20
2018-03-19T13:30:55.223Z,101829.37
2018-03-19T13:33:22.811Z,101828.94
2018-03-19T13:35:50.352Z,101834.77
2018-03-19T13:47:26.313Z,101829.65
2018-03-19T13:49:53.921Z,101824.51
2018-03-19T13:52:21.454Z,101831.88
2018-03-19T14:03:57.936Z,101853.17
2018-03-19T14:06:25.522Z,101848.90
2018-03-19T14:08:53.080Z,101840.72
2018-03-19T14:20:33.316Z,101848.73
2018-03-19T14:23:00.973Z,101854.78
2018-03-19T14:25:28.600Z,101850.83
2018-03-19T14:27:56.292Z,101858.88
2018-03-19T14:39:22.004Z,101862.44
2018-03-19T14:41:49.552Z,101868.10
2018-03-19T14:44:17.147Z,101865.77
2018-03-19T14:55:53.057Z,101864.61
2018-03-19T14:58:20.608Z,101864.92
2018-03-19T15:00:48.175Z,101859.28
2018-03-19T15:12:23.511Z,101876.25
2018-03-19T15:14:51.124Z,101878.08
2018-03-19T15:17:18.657Z,101873.73
2018-03-19T15:28:35.112Z,101876.61
2018-03-19T15:31:02.683Z,101893.59
2018-03-19T15:33:30.220Z,101890.30
2018-03-19T15:35:57.805Z,101888.80
2018-03-19T15:47:34.334Z,101878.27
2018-03-19T15:50:01.871Z,101880.68
2018-03-19T15:52:30.525Z,101889.66
2018-03-19T16:03:56.436Z,101892.21
2018-03-19T16:06:24.913Z,101901.02
2018-03-19T16:08:52.480Z,101918.86
2018-03-19T16:20:08.835Z,101928.38
2018-03-19T16:22:36.350Z,101932.26
2018-03-19T16:25:03.924Z,101921.15
2018-03-19T16:27:31.488Z,101924.69
2018-03-19T16:36:12.685Z,101939.83
2018-03-19T16:38:41.959Z,101939.80
2018-03-19T16:41:09.545Z,101948.84
2018-03-19T16:43:37.089Z,101956.20
2018-03-19T16:54:45.445Z,101959.42
2018-03-19T16:57:13.018Z,101966.50
2018-03-19T16:59:40.557Z,101968.92
2018-03-19T17:02:09.042Z,101976.26
2018-03-19T17:13:06.714Z,101982.70
2018-03-19T17:15:34.285Z,101985.87
2018-03-19T17:18:01.797Z,101981.30
2018-03-19T17:29:37.964Z,102002.03
2018-03-19T17:32:05.523Z,102014.17
2018-03-19T17:34:33.074Z,102012.02
2018-03-19T17:46:08.385Z,102036.26
2018-03-19T17:48:36.107Z,102039.72
2018-03-19T17:51:03.707Z,102048.38
2018-03-19T18:02:40.695Z,102074.34
2018-03-19T18:05:08.218Z,102081.27
2018-03-19T18:07:35.815Z,102085.16
2018-03-19T18:19:30.349Z,102093.92
2018-03-19T18:21:58.359Z,102096.09
2018-03-19T18:24:25.995Z,102099.55
2018-03-19T18:26:53.726Z,102101.27
2018-03-19T18:38:28.793Z,102120.23
2018-03-19T18:40:56.502Z,102121.52
2018-03-19T18:43:25.161Z,102132.25
2018-03-19T18:55:01.609Z,102153.28
2018-03-19T18:57:29.210Z,102153.70
2018-03-19T18:59:56.776Z,102152.84
2018-03-19T19:11:33.009Z,102166.56
2018-03-19T19:14:00.572Z,102174.73
2018-03-19T19:16:28.211Z,102171.28
2018-03-19T19:28:04.435Z,102197.06
2018-03-19T19:30:32.003Z,102206.94
2018-03-19T19:32:59.534Z,102211.23
2018-03-19T19:35:27.485Z,102208.23
2018-03-19T19:47:02.959Z,102240.88
2018-03-19T19:49:30.550Z,102252.03
2018-03-19T19:51:58.166Z,102247.75
2018-03-19T20:03:35.462Z,102268.78
2018-03-19T20:06:03.000Z,102282.52
2018-03-19T20:08:30.695Z,102290.25
2018-03-19T20:13:47.646Z,102300.98
2018-03-19T20:16:15.248Z,102309.55
2018-03-19T20:21:34.386Z,102322.00
2018-03-19T20:24:01.876Z,102321.56
2018-03-19T20:26:29.455Z,102333.17
2018-03-19T20:29:02.860Z,102330.98
2018-03-19T20:37:39.828Z,102344.27
2018-03-19T20:40:07.324Z,102345.11
2018-03-19T20:42:34.856Z,102349.38
2018-03-19T20:45:02.512Z,102361.80
2018-03-19T20:53:40.148Z,102363.02
2018-03-19T20:56:07.660Z,102369.45
2018-03-19T20:58:35.236Z,102373.30
2018-03-19T21:01:02.836Z,102368.58
2018-03-19T21:03:44.964Z,102372.86
2018-03-19T21:06:12.524Z,102365.56
2018-03-19T21:08:40.082Z,102365.56
2018-03-19T21:11:07.579Z,102368.97
2018-03-19T21:13:35.104Z,102365.13
2018-03-19T21:16:02.613Z,102377.53
2018-03-19T21:18:30.180Z,102371.97
2018-03-19T21:20:57.773Z,102371.94
2018-03-19T21:26:14.383Z,102374.92
2018-03-19T21:28:41.908Z,102362.05
2018-03-19T21:31:09.429Z,102371.03
2018-03-19T21:33:36.936Z,102380.90
2018-03-19T21:36:04.532Z,102382.61
2018-03-19T21:38:32.072Z,102368.44
2018-03-19T21:40:59.644Z,102386.47
2018-03-19T21:43:27.219Z,102399.34
2018-03-19T21:45:54.725Z,102396.31
2018-03-19T21:48:22.228Z,102414.77
2018-03-19T21:50:50.325Z,102414.35
2018-03-19T21:53:17.840Z,102424.65
2018-03-19T21:55:45.385Z,102424.23
2018-03-19T21:58:12.952Z,102440.53
2018-03-19T22:00:40.493Z,102449.11
2018-03-19T22:03:08.040Z,102464.09
2018-03-19T22:05:35.552Z,102466.23
2018-03-19T22:08:03.125Z,102473.53
2018-03-19T22:10:30.728Z,102482.97
2018-03-19T22:12:58.273Z,102485.92
2018-03-19T22:15:25.916Z,102489.80
2018-03-19T22:17:53.598Z,102505.22
2018-03-19T22:20:21.132Z,102509.52
2018-03-19T22:22:48.640Z,102507.36
2018-03-19T22:25:16.132Z,102511.63
2018-03-19T22:27:44.412Z,102519.77
2018-03-19T22:30:11.953Z,102527.08
2018-03-19T22:32:39.497Z,102521.89
2018-03-19T22:35:07.081Z,102518.03
2018-03-19T22:37:34.606Z,102530.92
2018-03-19T22:40:02.096Z,102530.88
2018-03-19T22:42:29.660Z,102536.46
2018-03-19T22:44:57.193Z,102542.01
2018-03-19T22:47:24.849Z,102542.84
2018-03-19T22:49:52.401Z,102546.28
2018-03-19T22:52:19.943Z,102546.70
2018-03-19T22:54:47.464Z,102545.41
2018-03-19T22:57:14.965Z,102557.84
2018-03-19T22:59:42.504Z,102559.55
2018-03-19T23:02:10.105Z,102556.10
2018-03-19T23:07:29.331Z,102574.55
2018-03-19T23:09:56.885Z,102575.40
2018-03-19T23:12:24.393Z,102577.09
2018-03-19T23:14:51.884Z,102582.68
2018-03-19T23:17:19.786Z,102577.10
2018-03-19T23:19:47.328Z,102574.05
2018-03-19T23:22:14.902Z,102578.36
2018-03-19T23:24:42.536Z,102577.49
2018-03-19T23:27:10.063Z,102573.61
2018-03-19T23:29:37.576Z,102570.59
2018-03-19T23:32:05.110Z,102583.91
2018-03-19T23:34:32.656Z,102594.19
2018-03-19T23:37:00.206Z,102600.18
2018-03-19T23:39:27.781Z,102611.33
2018-03-19T23:41:55.405Z,102622.91
2018-03-19T23:44:25.388Z,102625.47
2018-03-19T23:46:52.908Z,102634.47
2018-03-19T23:49:20.432Z,102626.70
2018-03-19T23:51:47.970Z,102634.82
2018-03-19T23:54:27.127Z,102625.79
2018-03-19T23:56:54.773Z,102632.61
2018-03-19T23:59:22.453Z,102635.16
